Wetterdaten: Woche 28.01.19 - 03.02.19 (KW5)
Datum Zeit Temp. Aussen Temp. o. S. +5cm Feuchte Auss Luftdruck Regen Sonnenschein Regendauer Solar Windben Empfang
28.01.2019 00:00 3,1 C 2,2 C 1,7 C 94 % 987,4 hPa 0,0 l/m 0,00 h 0,93 h 0 W/m 23,3 km/h (4 Bft) 97,52 %
28.01.2019 01:00 3,1 C 2,1 C 1,7 C 94 % 987,2 hPa 0,2 l/m 0,00 h 1,00 h 0 W/m 24,2 km/h (4 Bft) 98,08 %
28.01.2019 02:00 2,8 C 1,7 C 1,1 C 94 % 986,7 hPa 0,6 l/m 0,00 h 1,00 h 0 W/m 31,0 km/h (5 Bft) 97,04 %
28.01.2019 03:00 2,4 C 1,2 C 0,9 C 95 % 986,2 hPa 1,2 l/m 0,00 h 1,00 h 0 W/m 29,3 km/h (5 Bft) 97,88 %
28.01.2019 04:00 2,1 C 1,1 C 0,6 C 96 % 985,9 hPa 0,4 l/m 0,00 h 0,93 h 0 W/m 26,5 km/h (4 Bft) 96,48 %
28.01.2019 05:00 1,9 C 1,1 C 0,6 C 96 % 986,0 hPa 0,4 l/m 0,00 h 1,00 h 0 W/m 22,7 km/h (4 Bft) 97,80 %
28.01.2019 06:00 1,8 C 1,1 C 0,6 C 96 % 986,0 hPa 0,6 l/m 0,00 h 1,00 h 0 W/m 22,1 km/h (4 Bft) 98,89 %
28.01.2019 07:00 1,9 C 1,1 C 0,6 C 97 % 986,4 hPa 0,4 l/m 0,00 h 0,97 h 0 W/m 15,9 km/h (3 Bft) 95,02 %
28.01.2019 08:00 2,2 C 1,6 C 1,1 C 97 % 987,0 hPa 0,4 l/m 0,00 h 0,73 h 5 W/m 14,4 km/h (3 Bft) 98,51 %
28.01.2019 09:00 3,2 C 2,8 C 2,2 C 98 % 987,9 hPa 0,2 l/m 0,00 h 0,77 h 18 W/m 18,3 km/h (3 Bft) 98,43 %
28.01.2019 10:00 3,9 C 3,3 C 2,8 C 98 % 989,1 hPa 0,0 l/m 0,00 h 0,60 h 53 W/m 25,4 km/h (4 Bft) 95,46 %
28.01.2019 11:00 3,6 C 2,8 C 2,4 C 98 % 990,6 hPa 0,4 l/m 0,00 h 0,93 h 36 W/m 26,5 km/h (4 Bft) 98,31 %
28.01.2019 12:00 3,6 C 2,9 C 2,8 C 98 % 991,9 hPa 0,2 l/m 0,00 h 1,00 h 73 W/m 27,9 km/h (4 Bft) 97,97 %
28.01.2019 13:00 3,5 C 2,8 C 2,4 C 97 % 993,2 hPa 0,2 l/m 0,00 h 1,00 h 71 W/m 34,9 km/h (5 Bft) 96,94 %
28.01.2019 14:00 3,5 C 2,9 C 2,3 C 96 % 994,5 hPa 0,2 l/m 0,00 h 1,00 h 86 W/m 30,9 km/h (5 Bft) 96,40 %
28.01.2019 15:00 3,5 C 2,8 C 2,2 C 95 % 995,7 hPa 0,0 l/m 0,00 h 0,27 h 54 W/m 26,4 km/h (4 Bft) 98,58 %
28.01.2019 16:00 3,9 C 3,0 C 2,1 C 89 % 996,9 hPa 0,0 l/m 0,70 h 0,00 h 61 W/m 27,7 km/h (4 Bft) 97,37 %
28.01.2019 17:00 3,7 C 2,4 C 1,6 C 85 % 998,2 hPa 0,0 l/m 0,00 h 0,00 h 9 W/m 22,3 km/h (4 Bft) 95,60 %
28.01.2019 18:00 3,1 C 2,2 C 1,1 C 87 % 999,3 hPa 0,0 l/m 0,00 h 0,00 h 0 W/m 13,0 km/h (3 Bft) 97,50 %
28.01.2019 19:00 2,5 C 1,7 C 0,9 C 91 % 1000,4 hPa 0,0 l/m 0,00 h 0,00 h 0 W/m 14,5 km/h (3 Bft) 87,49 %
28.01.2019 20:00 1,7 C 1,1 C 0,3 C 93 % 1001,3 hPa 0,0 l/m 0,00 h 0,00 h 0 W/m 17,4 km/h (3 Bft) 92,94 %
28.01.2019 21:00 1,4 C 0,7 C 0,2 C 94 % 1002,1 hPa 0,0 l/m 0,00 h 0,00 h 0 W/m 13,8 km/h (3 Bft) 98,65 %
28.01.2019 22:00 0,9 C 0,2 C -0,1 C 95 % 1002,6 hPa 0,0 l/m 0,00 h 0,00 h 0 W/m 11,7 km/h (2 Bft) 97,10 %
28.01.2019 23:00 1,0 C 0,3 C -0,2 C 95 % 1003,1 hPa 0,2 l/m 0,00 h 0,40 h 0 W/m 10,3 km/h (2 Bft) 97,58 %
29.01.2019 00:00 1,0 C 0,5 C -0,1 C 96 % 1003,8 hPa 0,0 l/m 0,00 h 0,23 h 0 W/m 12,6 km/h (3 Bft) 94,05 %
29.01.2019 01:00 0,9 C 0,3 C -0,3 C 96 % 1004,1 hPa 0,0 l/m 0,00 h 0,00 h 0 W/m 9,9 km/h (2 Bft) 97,58 %
29.01.2019 02:00 0,6 C 0,0 C -0,6 C 96 % 1004,4 hPa 0,0 l/m 0,00 h 0,00 h 0 W/m 9,5 km/h (2 Bft) 99,00 %
29.01.2019 03:00 0,5 C 0,0 C -0,6 C 96 % 1004,8 hPa 0,0 l/m 0,00 h 0,00 h 0 W/m 8,0 km/h (2 Bft) 95,55 %
29.01.2019 04:00 0,5 C -0,1 C -0,7 C 97 % 1004,8 hPa 0,0 l/m 0,00 h 0,00 h 0 W/m 6,2 km/h (2 Bft) 97,45 %
29.01.2019 05:00 0,2 C -0,6 C -1,1 C 97 % 1004,9 hPa 0,0 l/m 0,00 h 0,00 h 0 W/m 6,5 km/h (2 Bft) 98,36 %
29.01.2019 06:00 0,1 C -0,4 C -0,9 C 97 % 1004,8 hPa 0,0 l/m 0,00 h 0,00 h 0 W/m 5,0 km/h (1 Bft) 96,17 %
29.01.2019 07:00 0,2 C -0,2 C -0,8 C 97 % 1004,7 hPa 0,0 l/m 0,00 h 0,00 h 0 W/m 1,7 km/h (1 Bft) 97,43 %
29.01.2019 08:00 0,5 C 0,3 C -0,4 C 97 % 1004,8 hPa 0,0 l/m 0,00 h 0,00 h 19 W/m 6,8 km/h (2 Bft) 97,52 %
29.01.2019 09:00 0,8 C 1,4 C 0,3 C 98 % 1004,7 hPa 0,0 l/m 0,10 h 0,00 h 63 W/m 8,8 km/h (2 Bft) 97,29 %
29.01.2019 10:00 1,5 C 2,8 C 1,5 C 98 % 1004,3 hPa 0,0 l/m 0,13 h 0,00 h 119 W/m 11,1 km/h (2 Bft) 97,40 %
29.01.2019 11:00 2,9 C 6,4 C 2,7 C 94 % 1003,8 hPa 0,0 l/m 1,00 h 0,00 h 259 W/m 18,0 km/h (3 Bft) 96,44 %
29.01.2019 12:00 4,5 C 8,2 C 4,9 C 76 % 1002,8 hPa 0,0 l/m 1,00 h 0,00 h 347 W/m 19,1 km/h (3 Bft) 95,59 %
29.01.2019 13:00 5,2 C 7,5 C 4,5 C 68 % 1001,9 hPa 0,0 l/m 0,70 h 0,00 h 290 W/m 19,9 km/h (4 Bft) 97,03 %
29.01.2019 14:00 4,7 C 5,8 C 4,0 C 67 % 1001,1 hPa 0,0 l/m 0,50 h 0,00 h 176 W/m 22,4 km/h (4 Bft) 98,90 %
29.01.2019 15:00 4,3 C 3,8 C 3,0 C 70 % 1000,4 hPa 0,0 l/m 0,00 h 0,00 h 69 W/m 22,6 km/h (4 Bft) 97,12 %
29.01.2019 16:00 3,4 C 2,8 C 2,1 C 73 % 999,6 hPa 0,0 l/m 0,00 h 0,00 h 41 W/m 18,1 km/h (3 Bft) 96,58 %
29.01.2019 17:00 2,3 C 1,6 C 0,9 C 75 % 999,0 hPa 0,0 l/m 0,00 h 0,00 h 9 W/m 17,6 km/h (3 Bft) 98,93 %
29.01.2019 18:00 1,5 C 0,8 C 0,2 C 79 % 998,3 hPa 0,0 l/m 0,00 h 0,00 h 0 W/m 18,2 km/h (3 Bft) 96,76 %
29.01.2019 19:00 1,0 C 0,6 C 0,0 C 81 % 997,6 hPa 0,0 l/m 0,00 h 0,00 h 0 W/m 14,6 km/h (3 Bft) 96,02 %
29.01.2019 20:00 1,1 C 0,6 C 0,0 C 82 % 996,9 hPa 0,0 l/m 0,00 h 0,00 h 0 W/m 13,6 km/h (3 Bft) 98,51 %
29.01.2019 21:00 0,9 C 0,4 C -0,4 C 84 % 996,2 hPa 0,0 l/m 0,00 h 0,00 h 0 W/m 8,8 km/h (2 Bft) 97,65 %
29.01.2019 22:00 1,0 C 0,6 C 0,0 C 85 % 995,4 hPa 0,0 l/m 0,00 h 0,00 h 0 W/m 14,2 km/h (3 Bft) 96,99 %
29.01.2019 23:00 1,4 C 1,1 C 0,3 C 82 % 994,5 hPa 0,0 l/m 0,00 h 0,00 h 0 W/m 18,6 km/h (3 Bft) 96,63 %
30.01.2019 00:00 1,3 C 0,7 C 0,0 C 82 % 993,5 hPa 0,0 l/m 0,00 h 0,00 h 0 W/m 15,2 km/h (3 Bft) 95,16 %
30.01.2019 01:00 1,0 C 0,6 C -0,2 C 84 % 992,6 hPa 0,0 l/m 0,00 h 0,00 h 0 W/m 11,9 km/h (2 Bft) 97,86 %
30.01.2019 02:00 0,7 C 0,0 C -0,8 C 84 % 991,9 hPa 0,0 l/m 0,00 h 0,00 h 0 W/m 11,1 km/h (2 Bft) 96,16 %
30.01.2019 03:00 0,4 C 0,0 C -0,8 C 85 % 991,1 hPa 0,0 l/m 0,00 h 0,00 h 0 W/m 11,6 km/h (2 Bft) 97,58 %
30.01.2019 04:00 0,3 C -0,4 C -1,2 C 84 % 990,6 hPa 0,0 l/m 0,00 h 0,00 h 0 W/m 7,0 km/h (2 Bft) 98,50 %
30.01.2019 05:00 0,1 C -0,5 C -1,2 C 85 % 990,3 hPa 0,0 l/m 0,00 h 0,00 h 0 W/m 6,8 km/h (2 Bft) 97,13 %
30.01.2019 06:00 0,4 C -0,5 C -1,1 C 84 % 990,0 hPa 0,0 l/m 0,00 h 0,00 h 0 W/m 6,0 km/h (2 Bft) 96,11 %
30.01.2019 07:00 0,3 C -0,2 C -0,9 C 84 % 989,7 hPa 0,0 l/m 0,00 h 0,00 h 0 W/m 8,2 km/h (2 Bft) 98,99 %
30.01.2019 08:00 0,6 C 0,0 C -0,6 C 81 % 989,5 hPa 0,0 l/m 0,00 h 0,00 h 7 W/m 8,5 km/h (2 Bft) 97,87 %
30.01.2019 09:00 0,6 C 0,0 C -0,5 C 83 % 989,7 hPa 0,0 l/m 0,00 h 0,00 h 21 W/m 11,4 km/h (2 Bft) 95,97 %
30.01.2019 10:00 0,1 C -0,7 C -1,1 C 91 % 989,9 hPa 0,0 l/m 0,00 h 0,73 h 32 W/m 4,4 km/h (1 Bft) 98,03 %
30.01.2019 11:00 0,1 C -0,6 C -0,7 C 93 % 990,1 hPa 0,0 l/m 0,00 h 0,40 h 57 W/m 5,2 km/h (1 Bft) 97,22 %
30.01.2019 12:00 0,2 C -0,4 C -0,6 C 94 % 990,0 hPa 0,4 l/m 0,00 h 0,73 h 71 W/m 2,5 km/h (1 Bft) 97,83 %
30.01.2019 13:00 0,4 C -0,1 C -0,5 C 95 % 990,1 hPa 0,4 l/m 0,00 h 0,17 h 58 W/m 1,1 km/h (0 Bft) 95,64 %
30.01.2019 14:00 0,3 C -0,4 C -0,8 C 95 % 990,4 hPa 0,2 l/m 0,00 h 0,50 h 29 W/m 4,0 km/h (1 Bft) 98,23 %
30.01.2019 15:00 0,2 C -0,6 C -1,1 C 95 % 990,9 hPa 0,0 l/m 0,00 h 1,00 h 27 W/m 2,5 km/h (1 Bft) 97,53 %
30.01.2019 16:00 0,0 C -0,6 C -1,1 C 96 % 991,5 hPa 0,2 l/m 0,00 h 0,87 h 12 W/m 2,4 km/h (1 Bft) 98,12 %
30.01.2019 17:00 -0,1 C -0,6 C -1,1 C 96 % 992,0 hPa 0,0 l/m 0,00 h 1,00 h 0 W/m 2,1 km/h (1 Bft) 95,76 %
30.01.2019 18:00 -0,0 C -0,6 C -1,1 C 96 % 992,6 hPa 0,0 l/m 0,00 h 1,00 h 0 W/m 3,3 km/h (1 Bft) 96,69 %
30.01.2019 19:00 0,0 C -0,6 C -1,1 C 97 % 993,0 hPa 0,0 l/m 0,00 h 0,93 h 0 W/m 2,6 km/h (1 Bft) 99,28 %
30.01.2019 20:00 0,1 C -0,6 C -1,1 C 97 % 993,2 hPa 0,0 l/m 0,00 h 1,00 h 0 W/m 4,4 km/h (1 Bft) 96,42 %
30.01.2019 21:00 0,1 C -0,6 C -1,1 C 97 % 993,6 hPa 0,2 l/m 0,00 h 0,90 h 0 W/m 4,0 km/h (1 Bft) 96,10 %
30.01.2019 22:00 0,3 C -0,4 C -1,1 C 97 % 993,8 hPa 0,0 l/m 0,00 h 0,03 h 0 W/m 4,9 km/h (1 Bft) 99,15 %
30.01.2019 23:00 0,0 C -0,6 C -1,1 C 97 % 994,0 hPa 0,0 l/m 0,00 h 0,00 h 0 W/m 7,5 km/h (2 Bft) 96,65 %
31.01.2019 00:00 -0,4 C -1,0 C -1,5 C 97 % 994,3 hPa 0,0 l/m 0,00 h 0,00 h 0 W/m 11,8 km/h (2 Bft) 97,39 %
31.01.2019 01:00 -1,0 C -1,8 C -2,1 C 97 % 994,5 hPa 0,0 l/m 0,00 h 0,00 h 0 W/m 12,3 km/h (3 Bft) 98,00 %
31.01.2019 02:00 -1,6 C -2,3 C -2,9 C 97 % 994,7 hPa 0,0 l/m 0,00 h 0,00 h 0 W/m 7,4 km/h (2 Bft) 96,95 %
31.01.2019 03:00 -2,3 C -3,2 C -3,5 C 96 % 994,7 hPa 0,0 l/m 0,00 h 0,00 h 0 W/m 2,2 km/h (1 Bft) 99,56 %
31.01.2019 04:00 -3,2 C -4,8 C -4,8 C 96 % 994,5 hPa 0,0 l/m 0,00 h 0,00 h 0 W/m 0,4 km/h (0 Bft) 95,09 %
31.01.2019 05:00 -3,7 C -4,0 C -4,5 C 96 % 994,6 hPa 0,0 l/m 0,00 h 0,00 h 0 W/m 6,1 km/h (2 Bft) 98,04 %
31.01.2019 06:00 -3,8 C -4,3 C -4,8 C 96 % 994,6 hPa 0,0 l/m 0,00 h 0,00 h 0 W/m 4,3 km/h (1 Bft) 99,13 %
31.01.2019 07:00 -4,0 C -4,4 C -5,0 C 96 % 994,8 hPa 0,0 l/m 0,00 h 0,00 h 0 W/m 4,9 km/h (1 Bft) 95,04 %
31.01.2019 08:00 -3,7 C -3,8 C -4,4 C 96 % 995,2 hPa 0,0 l/m 0,00 h 0,00 h 5 W/m 2,4 km/h (1 Bft) 97,53 %
31.01.2019 09:00 -3,0 C -3,1 C -3,4 C 96 % 995,4 hPa 0,0 l/m 0,00 h 0,00 h 13 W/m 0,5 km/h (0 Bft) 97,16 %
31.01.2019 10:00 -2,4 C -1,7 C -2,1 C 97 % 995,4 hPa 0,0 l/m 0,00 h 0,00 h 34 W/m 0,5 km/h (0 Bft) 96,73 %
31.01.2019 11:00 -1,0 C 0,0 C -0,6 C 97 % 995,3 hPa 0,2 l/m 0,00 h 0,00 h 55 W/m 1,1 km/h (0 Bft) 94,50 %
31.01.2019 12:00 -0,1 C 0,8 C 0,8 C 97 % 994,8 hPa 1,0 l/m 0,00 h 0,00 h 92 W/m 7,0 km/h (2 Bft) 96,10 %
31.01.2019 13:00 0,6 C 3,1 C 1,0 C 96 % 994,6 hPa 0,6 l/m 0,83 h 0,00 h 273 W/m 7,3 km/h (2 Bft) 98,36 %
31.01.2019 14:00 1,5 C 3,0 C 1,2 C 93 % 994,3 hPa 0,8 l/m 0,53 h 0,00 h 225 W/m 4,0 km/h (1 Bft) 97,39 %
31.01.2019 15:00 1,2 C 0,6 C 0,4 C 90 % 994,1 hPa 0,2 l/m 0,07 h 0,00 h 94 W/m 1,5 km/h (1 Bft) 97,30 %
31.01.2019 16:00 0,8 C 0,1 C -0,3 C 91 % 993,9 hPa 0,0 l/m 0,60 h 0,00 h 66 W/m 2,8 km/h (1 Bft) 98,73 %
31.01.2019 17:00 0,1 C -1,6 C -2,2 C 91 % 993,2 hPa 0,0 l/m 0,00 h 0,00 h 7 W/m 1,8 km/h (1 Bft) 95,05 %
31.01.2019 18:00 -1,1 C -2,4 C -3,3 C 92 % 992,9 hPa 0,0 l/m 0,00 h 0,00 h 0 W/m 0,0 km/h (0 Bft) 99,12 %
31.01.2019 19:00 -2,3 C -3,9 C -4,0 C 92 % 992,4 hPa 0,0 l/m 0,00 h 0,00 h 0 W/m 0,0 km/h (0 Bft) 98,72 %
31.01.2019 20:00 -2,8 C -3,8 C -4,0 C 93 % 991,7 hPa 0,0 l/m 0,00 h 0,03 h 0 W/m 2,7 km/h (1 Bft) 96,46 %
31.01.2019 21:00 -2,1 C -2,8 C -3,3 C 95 % 990,9 hPa 0,0 l/m 0,00 h 0,00 h 0 W/m 4,9 km/h (1 Bft) 97,72 %
31.01.2019 22:00 -2,2 C -2,9 C -3,4 C 95 % 990,1 hPa 0,0 l/m 0,00 h 0,00 h 0 W/m 3,2 km/h (1 Bft) 97,17 %
31.01.2019 23:00 -1,5 C -1,8 C -2,3 C 96 % 989,5 hPa 0,0 l/m 0,00 h 0,00 h 0 W/m 6,7 km/h (2 Bft) 98,29 %
01.02.2019 00:00 -1,0 C -1,5 C -1,8 C 95 % 988,5 hPa 0,0 l/m 0,00 h 0,00 h 0 W/m 7,5 km/h (2 Bft) 97,70 %
01.02.2019 01:00 -0,4 C -0,9 C -1,3 C 93 % 987,5 hPa 0,0 l/m 0,00 h 0,00 h 0 W/m 7,3 km/h (2 Bft) 97,15 %
01.02.2019 02:00 0,3 C -0,5 C -0,7 C 90 % 986,8 hPa 0,0 l/m 0,00 h 0,00 h 0 W/m 17,0 km/h (3 Bft) 99,02 %
01.02.2019 03:00 0,3 C -0,6 C -1,1 C 93 % 986,0 hPa 0,0 l/m 0,00 h 0,60 h 0 W/m 10,4 km/h (2 Bft) 95,87 %
01.02.2019 04:00 0,1 C -0,6 C -1,1 C 96 % 985,3 hPa 0,0 l/m 0,00 h 0,53 h 0 W/m 9,2 km/h (2 Bft) 98,30 %
01.02.2019 05:00 0,3 C -0,2 C -0,8 C 96 % 985,2 hPa 0,0 l/m 0,00 h 0,10 h 0 W/m 15,9 km/h (3 Bft) 98,99 %
01.02.2019 06:00 0,6 C -0,0 C -0,6 C 96 % 985,4 hPa 0,0 l/m 0,00 h 0,13 h 0 W/m 15,0 km/h (3 Bft) 94,00 %
01.02.2019 07:00 0,8 C 0,0 C -0,6 C 96 % 986,0 hPa 0,0 l/m 0,00 h 0,00 h 0 W/m 10,9 km/h (2 Bft) 98,56 %
01.02.2019 08:00 1,0 C 0,5 C -0,2 C 96 % 986,8 hPa 0,2 l/m 0,00 h 0,00 h 5 W/m 10,9 km/h (2 Bft) 98,37 %
01.02.2019 09:00 1,2 C 0,6 C 0,2 C 96 % 987,2 hPa 0,4 l/m 0,00 h 0,00 h 26 W/m 13,0 km/h (3 Bft) 96,08 %
01.02.2019 10:00 1,4 C 1,0 C 0,6 C 96 % 987,3 hPa 0,4 l/m 0,00 h 0,00 h 51 W/m 11,2 km/h (2 Bft) 98,01 %
01.02.2019 11:00 2,1 C 2,6 C 2,0 C 96 % 987,8 hPa 0,4 l/m 0,27 h 0,00 h 139 W/m 17,4 km/h (3 Bft) 97,23 %
01.02.2019 12:00 3,3 C 3,6 C 3,3 C 94 % 987,7 hPa 0,2 l/m 0,37 h 0,00 h 165 W/m 16,7 km/h (3 Bft) 96,87 %
01.02.2019 13:00 4,2 C 4,5 C 4,1 C 90 % 987,7 hPa 0,0 l/m 0,47 h 0,00 h 186 W/m 16,1 km/h (3 Bft) 98,08 %
01.02.2019 14:00 4,7 C 5,6 C 4,4 C 89 % 987,6 hPa 0,0 l/m 0,53 h 0,00 h 158 W/m 17,8 km/h (3 Bft) 98,01 %
01.02.2019 15:00 5,2 C 5,5 C 4,3 C 87 % 987,7 hPa 0,0 l/m 0,10 h 0,00 h 101 W/m 11,7 km/h (2 Bft) 96,35 %
01.02.2019 16:00 5,0 C 4,7 C 3,4 C 88 % 987,8 hPa 0,0 l/m 0,00 h 0,00 h 38 W/m 6,8 km/h (2 Bft) 97,20 %
01.02.2019 17:00 4,5 C 3,7 C 2,6 C 89 % 987,8 hPa 0,0 l/m 0,00 h 0,00 h 9 W/m 5,8 km/h (2 Bft) 98,63 %
01.02.2019 18:00 4,1 C 3,2 C 2,2 C 90 % 987,9 hPa 0,0 l/m 0,00 h 0,00 h 0 W/m 4,4 km/h (1 Bft) 97,72 %
01.02.2019 19:00 3,5 C 2,4 C 1,2 C 91 % 988,2 hPa 0,0 l/m 0,00 h 0,00 h 0 W/m 3,4 km/h (1 Bft) 96,69 %
01.02.2019 20:00 2,4 C 0,6 C -0,4 C 91 % 988,7 hPa 0,0 l/m 0,00 h 0,00 h 0 W/m 2,9 km/h (1 Bft) 98,15 %
01.02.2019 21:00 1,3 C -0,2 C -1,6 C 91 % 988,9 hPa 0,0 l/m 0,00 h 0,00 h 0 W/m 1,2 km/h (1 Bft) 98,95 %
01.02.2019 22:00 0,4 C -1,1 C -2,0 C 92 % 989,0 hPa 0,0 l/m 0,00 h 0,00 h 0 W/m 1,3 km/h (1 Bft) 95,44 %
01.02.2019 23:00 0,2 C -0,7 C -1,8 C 93 % 989,4 hPa 0,0 l/m 0,00 h 0,00 h 0 W/m 1,3 km/h (1 Bft) 99,21 %
02.02.2019 00:00 0,2 C -0,2 C -1,2 C 94 % 989,6 hPa 0,0 l/m 0,00 h 0,00 h 0 W/m 0,4 km/h (0 Bft) 96,70 %
02.02.2019 01:00 0,5 C 0,2 C -0,6 C 95 % 989,6 hPa 0,0 l/m 0,00 h 0,00 h 0 W/m 0,0 km/h (0 Bft) 97,69 %
02.02.2019 02:00 0,8 C 0,7 C -0,6 C 96 % 989,9 hPa 0,0 l/m 0,00 h 0,00 h 0 W/m 0,1 km/h (0 Bft) 97,72 %
02.02.2019 03:00 1,0 C 0,7 C -0,0 C 96 % 990,0 hPa 0,2 l/m 0,00 h 0,63 h 0 W/m 1,0 km/h (0 Bft) 97,05 %
02.02.2019 04:00 1,3 C 0,6 C 0,0 C 96 % 990,3 hPa 0,6 l/m 0,00 h 1,00 h 0 W/m 2,8 km/h (1 Bft) 99,11 %
02.02.2019 05:00 1,2 C 0,6 C 0,0 C 97 % 990,8 hPa 2,0 l/m 0,00 h 0,97 h 0 W/m 0,5 km/h (0 Bft) 95,52 %
02.02.2019 06:00 1,0 C 0,6 C 0,0 C 97 % 991,0 hPa 1,2 l/m 0,00 h 1,00 h 0 W/m 0,8 km/h (0 Bft) 98,38 %
02.02.2019 07:00 1,1 C 0,6 C 0,0 C 97 % 991,5 hPa 0,2 l/m 0,00 h 0,53 h 0 W/m 1,9 km/h (1 Bft) 98,79 %
02.02.2019 08:00 1,2 C 0,6 C 0,1 C 97 % 992,1 hPa 0,6 l/m 0,00 h 1,00 h 8 W/m 0,6 km/h (0 Bft) 94,80 %
02.02.2019 09:00 1,4 C 1,1 C 0,6 C 97 % 993,1 hPa 0,8 l/m 0,00 h 0,90 h 17 W/m 2,7 km/h (1 Bft) 98,86 %
02.02.2019 10:00 1,7 C 1,2 C 0,8 C 98 % 993,9 hPa 0,8 l/m 0,00 h 1,00 h 33 W/m 4,2 km/h (1 Bft) 97,94 %
02.02.2019 11:00 1,8 C 1,4 C 1,1 C 98 % 994,6 hPa 0,4 l/m 0,00 h 1,00 h 53 W/m 11,3 km/h (2 Bft) 95,52 %
02.02.2019 12:00 2,0 C 1,8 C 1,5 C 98 % 995,1 hPa 0,4 l/m 0,00 h 0,93 h 86 W/m 9,3 km/h (2 Bft) 98,01 %
02.02.2019 13:00 1,9 C 1,5 C 1,1 C 98 % 995,9 hPa 0,4 l/m 0,00 h 0,90 h 60 W/m 9,1 km/h (2 Bft) 98,36 %
02.02.2019 14:00 1,7 C 1,1 C 0,9 C 98 % 996,6 hPa 0,2 l/m 0,00 h 0,90 h 29 W/m 9,1 km/h (2 Bft) 97,01 %
02.02.2019 15:00 1,4 C 0,7 C 0,6 C 98 % 997,5 hPa 0,2 l/m 0,00 h 1,00 h 16 W/m 8,1 km/h (2 Bft) 95,80 %
02.02.2019 16:00 1,0 C 0,2 C -0,2 C 98 % 998,7 hPa 0,6 l/m 0,00 h 1,00 h 19 W/m 8,3 km/h (2 Bft) 98,08 %
02.02.2019 17:00 0,6 C 0,0 C -0,6 C 98 % 999,9 hPa 0,4 l/m 0,00 h 0,85 h 5 W/m 6,8 km/h (2 Bft) 97,89 %
02.02.2019 18:00 0,5 C 0,0 C -0,6 C 98 % 1001,3 hPa 0,2 l/m 0,00 h 0,20 h 0 W/m 7,3 km/h (2 Bft) 96,33 %
02.02.2019 19:00 0,5 C 0,0 C -0,5 C 98 % 1002,6 hPa 0,2 l/m 0,00 h 0,00 h 0 W/m 10,6 km/h (2 Bft) 97,82 %
02.02.2019 20:00 0,7 C 0,0 C -0,0 C 98 % 1003,8 hPa 0,0 l/m 0,00 h 0,00 h 0 W/m 11,9 km/h (2 Bft) 97,33 %
02.02.2019 21:00 0,7 C 0,1 C 0,0 C 99 % 1005,0 hPa 0,0 l/m 0,00 h 0,00 h 0 W/m 17,0 km/h (3 Bft) 97,68 %
02.02.2019 22:00 0,7 C 0,0 C 0,0 C 99 % 1006,3 hPa 0,0 l/m 0,00 h 0,00 h 0 W/m 6,9 km/h (2 Bft) 97,08 %
02.02.2019 23:00 0,7 C 0,0 C 0,0 C 99 % 1007,6 hPa 0,0 l/m 0,00 h 0,00 h 0 W/m 10,6 km/h (2 Bft) 96,24 %
03.02.2019 00:00 0,6 C 0,0 C -0,5 C 99 % 1008,5 hPa 0,0 l/m 0,00 h 0,00 h 0 W/m 8,0 km/h (2 Bft) 99,07 %
03.02.2019 01:00 0,2 C -0,6 C -1,1 C 99 % 1009,0 hPa 0,0 l/m 0,00 h 0,00 h 0 W/m 7,1 km/h (2 Bft) 96,44 %
03.02.2019 02:00 -0,3 C -1,1 C -1,5 C 98 % 1010,1 hPa 0,0 l/m 0,00 h 0,00 h 0 W/m 2,0 km/h (1 Bft) 96,66 %
03.02.2019 03:00 -0,2 C -0,6 C -1,1 C 99 % 1010,9 hPa 0,0 l/m 0,00 h 0,00 h 0 W/m 2,7 km/h (1 Bft) 99,22 %
03.02.2019 04:00 0,0 C -0,6 C -0,6 C 99 % 1011,2 hPa 0,0 l/m 0,00 h 0,00 h 0 W/m 5,4 km/h (1 Bft) 95,50 %
03.02.2019 05:00 0,2 C -0,6 C -0,9 C 99 % 1012,0 hPa 0,0 l/m 0,00 h 0,00 h 0 W/m 7,4 km/h (2 Bft) 97,67 %
03.02.2019 06:00 -0,3 C -1,3 C -2,0 C 99 % 1013,6 hPa 0,0 l/m 0,00 h 0,00 h 0 W/m 0,0 km/h (0 Bft) 98,78 %
03.02.2019 07:00 -0,6 C -1,3 C -1,7 C 98 % 1014,5 hPa 0,0 l/m 0,00 h 0,00 h 0 W/m 2,2 km/h (1 Bft) 96,34 %
03.02.2019 08:00 -0,6 C -1,3 C -1,7 C 99 % 1015,0 hPa 0,0 l/m 0,00 h 0,03 h 13 W/m 6,6 km/h (2 Bft) 97,81 %
03.02.2019 09:00 -0,1 C 0,8 C -1,0 C 99 % 1015,8 hPa 0,0 l/m 0,33 h 0,00 h 80 W/m 8,9 km/h (2 Bft) 96,05 %
03.02.2019 10:00 1,3 C 6,4 C 0,1 C 99 % 1016,6 hPa 0,0 l/m 0,93 h 0,00 h 245 W/m 11,4 km/h (2 Bft) 96,56 %
03.02.2019 11:00 2,9 C 10,0 C 1,6 C 99 % 1017,4 hPa 0,0 l/m 1,00 h 0,00 h 317 W/m 9,5 km/h (2 Bft) 92,08 %
03.02.2019 12:00 4,8 C 13,6 C 5,9 C 97 % 1018,2 hPa 0,0 l/m 1,00 h 0,00 h 406 W/m 11,2 km/h (2 Bft) 84,52 %
03.02.2019 13:00 6,5 C 12,8 C 5,1 C 84 % 1018,8 hPa 0,0 l/m 0,77 h 0,00 h 346 W/m 4,7 km/h (1 Bft) 93,61 %
03.02.2019 14:00 6,4 C 11,4 C 5,2 C 80 % 1019,2 hPa 0,0 l/m 0,70 h 0,00 h 313 W/m 4,9 km/h (1 Bft) 97,59 %
03.02.2019 15:00 6,4 C 7,3 C 4,5 C 76 % 1019,7 hPa 0,0 l/m 0,30 h 0,00 h 122 W/m 2,9 km/h (1 Bft) 99,24 %
03.02.2019 16:00 5,3 C 4,7 C 3,6 C 80 % 1020,3 hPa 0,0 l/m 0,00 h 0,00 h 39 W/m 0,2 km/h (0 Bft) 89,14 %
03.02.2019 17:00 4,3 C 2,9 C 1,9 C 82 % 1021,0 hPa 0,0 l/m 0,00 h 0,00 h 10 W/m 0,1 km/h (0 Bft) 95,42 %
03.02.2019 18:00 3,1 C 1,6 C 0,4 C 84 % 1021,8 hPa 0,0 l/m 0,00 h 0,00 h 0 W/m 0,0 km/h (0 Bft) 99,47 %
03.02.2019 19:00 2,0 C 0,6 C -1,3 C 86 % 1022,4 hPa 0,0 l/m 0,00 h 0,00 h 0 W/m 0,0 km/h (0 Bft) 96,78 %
03.02.2019 20:00 1,2 C 0,2 C -1,6 C 89 % 1022,9 hPa 0,0 l/m 0,00 h 0,00 h 0 W/m 0,2 km/h (0 Bft) 95,12 %
03.02.2019 21:00 0,6 C -0,2 C -2,0 C 91 % 1023,5 hPa 0,0 l/m 0,00 h 0,00 h 0 W/m 0,1 km/h (0 Bft) 98,09 %
03.02.2019 22:00 0,3 C -0,6 C -2,0 C 92 % 1024,1 hPa 0,0 l/m 0,00 h 0,00 h 0 W/m 0,0 km/h (0 Bft) 97,96 %
03.02.2019 23:00 0,5 C 0,0 C -0,8 C 94 % 1024,5 hPa 0,0 l/m 0,00 h 0,00 h 0 W/m 0,5 km/h (0 Bft) 96,40 %
Min-Datum _ 31.01.19 31.01.19 31.01.19 29.01.19 01.02.19 - - - - 29.01.19 29.01.19
_ Min-Zeit 05:04 04:40 04:44 13:48 05:18 - - - - 04:22 00:02
Minimum _ -4,0 C -5,6 C -5,6 C 65 % 985,1 hPa - - - - 0,0 km/h (0 Bft) 4,76 %
Max-Datum _ 03.02.19 03.02.19 03.02.19 02.02.19 03.02.19 02.02.19 29.01.19 28.01.19 03.02.19 28.01.19 28.01.19
_ Max-Zeit 15:02 13:26 12:52 21:04 23:24 05:00 12:08 04:05 13:34 13:30 00:08
Maximum _ 7,1 C 16,7 C 11,1 C 99 % 1024,6 hPa 2,0 l/m 0,07 h 0,08 h 523 W/m 61,2 km/h
N-NW (7 Bft)
100,00 %
Durchschnitt _ 1,1 C 0,9 C -0,0 C 93 % 997,2 hPa #20,8 l/m #12:56 h #39:17 h 89 W/m 9,3 km/h (2 Bft) 97,06 %
© 2019 W. Hausmann